IGO182 VOBL-VOMM
Flight info
| Callsign | IGO182 |
|---|---|
| Flight time | 0h 35m |
| Altitude | 19000 |
| Route | BIA W116 MMV |
| Aircraft | A320/M-SDE3FGHIRWY/LB1 |
Departure
| Time | 2026-05-05 11:27 |
|---|---|
| Airport | Kempegowda International Airport Bengaluru (VOBL) |
Arrival
| Time | 2026-05-05 12:02 |
|---|---|
| Airport | Chennai International Airport (VOMM) |
| Time | Latitude | Longitude | Altitude | Speed | Heading |
|---|---|---|---|---|---|
| 2026-05-05 11:07 | 13.20174 | 77.70959 | 2969 ft | 0 kts | 180° |
| 2026-05-05 11:15 | 13.20185 | 77.70959 | 2969 ft | 2 kts | 174° |
| 2026-05-05 11:15 | 13.20201 | 77.70958 | 2968 ft | 2 kts | 168° |
| 2026-05-05 11:16 | 13.20217 | 77.70956 | 2969 ft | 2 kts | 163° |
| 2026-05-05 11:16 | 13.20233 | 77.70950 | 2968 ft | 2 kts | 140° |
| 2026-05-05 11:16 | 13.20242 | 77.70936 | 2968 ft | 2 kts | 95° |
| 2026-05-05 11:16 | 13.20242 | 77.70931 | 2968 ft | 0 kts | 84° |
| 2026-05-05 11:20 | 13.20243 | 77.70952 | 2969 ft | 5 kts | 89° |
| 2026-05-05 11:20 | 13.20241 | 77.70977 | 2969 ft | 3 kts | 89° |
| 2026-05-05 11:20 | 13.20242 | 77.70999 | 2968 ft | 3 kts | 90° |
| 2026-05-05 11:21 | 13.20242 | 77.71021 | 2968 ft | 4 kts | 90° |
| 2026-05-05 11:21 | 13.20241 | 77.71064 | 2968 ft | 9 kts | 91° |
| 2026-05-05 11:21 | 13.20240 | 77.71131 | 2969 ft | 9 kts | 90° |
| 2026-05-05 11:21 | 13.20240 | 77.71189 | 2968 ft | 9 kts | 90° |
| 2026-05-05 11:22 | 13.20242 | 77.71255 | 2969 ft | 9 kts | 70° |
| 2026-05-05 11:22 | 13.20307 | 77.71275 | 2968 ft | 12 kts | 2° |
| 2026-05-05 11:22 | 13.20394 | 77.71277 | 2968 ft | 12 kts | 1° |
| 2026-05-05 11:22 | 13.20482 | 77.71278 | 2953 ft | 14 kts | 1° |
| 2026-05-05 11:23 | 13.20522 | 77.71345 | 2966 ft | 14 kts | 92° |
| 2026-05-05 11:23 | 13.20518 | 77.71456 | 2966 ft | 15 kts | 91° |
| 2026-05-05 11:23 | 13.20518 | 77.71583 | 2968 ft | 20 kts | 90° |
| 2026-05-05 11:23 | 13.20519 | 77.71728 | 2970 ft | 19 kts | 90° |
| 2026-05-05 11:24 | 13.20519 | 77.71859 | 2969 ft | 18 kts | 90° |
| 2026-05-05 11:24 | 13.20519 | 77.71981 | 2968 ft | 16 kts | 90° |
| 2026-05-05 11:24 | 13.20515 | 77.72087 | 2969 ft | 14 kts | 91° |
| 2026-05-05 11:24 | 13.20517 | 77.72185 | 2968 ft | 13 kts | 87° |
| 2026-05-05 11:25 | 13.20538 | 77.72273 | 2967 ft | 12 kts | 37° |
| 2026-05-05 11:25 | 13.20631 | 77.72285 | 2967 ft | 16 kts | 355° |
| 2026-05-05 11:25 | 13.20686 | 77.72230 | 2967 ft | 6 kts | 266° |
| 2026-05-05 11:25 | 13.20688 | 77.72190 | 2967 ft | 9 kts | 272° |
| 2026-05-05 11:26 | 13.20691 | 77.71900 | 2967 ft | 75 kts | 270° |
| 2026-05-05 11:26 | 13.20696 | 77.71166 | 2969 ft | 128 kts | 269° |
| 2026-05-05 11:26 | 13.20707 | 77.70104 | 2969 ft | 168 kts | 270° |
| 2026-05-05 11:26 | 13.20750 | 77.68843 | 3457 ft | 171 kts | 283° |
| 2026-05-05 11:27 | 13.21107 | 77.67698 | 4130 ft | 171 kts | 298° |
| 2026-05-05 11:27 | 13.21723 | 77.66650 | 4782 ft | 174 kts | 306° |
| 2026-05-05 11:27 | 13.22412 | 77.65570 | 5146 ft | 188 kts | 303° |
| 2026-05-05 11:27 | 13.23131 | 77.64356 | 5335 ft | 210 kts | 302° |
| 2026-05-05 11:28 | 13.23927 | 77.62992 | 5562 ft | 235 kts | 303° |
| 2026-05-05 11:28 | 13.24809 | 77.61475 | 5891 ft | 259 kts | 302° |
| 2026-05-05 11:28 | 13.25763 | 77.59823 | 6370 ft | 275 kts | 302° |
| 2026-05-05 11:28 | 13.26745 | 77.58115 | 7107 ft | 280 kts | 302° |
| 2026-05-05 11:29 | 13.27744 | 77.56381 | 7884 ft | 284 kts | 303° |
| 2026-05-05 11:29 | 13.28964 | 77.54799 | 8639 ft | 285 kts | 321° |
| 2026-05-05 11:29 | 13.30689 | 77.53817 | 9414 ft | 286 kts | 344° |
| 2026-05-05 11:29 | 13.32659 | 77.53595 | 10165 ft | 288 kts | 6° |
| 2026-05-05 11:30 | 13.34632 | 77.54201 | 10452 ft | 310 kts | 30° |
| 2026-05-05 11:30 | 13.36235 | 77.55767 | 10774 ft | 331 kts | 57° |
| 2026-05-05 11:30 | 13.37003 | 77.58016 | 11391 ft | 342 kts | 83° |
| 2026-05-05 11:30 | 13.36762 | 77.60457 | 12025 ft | 349 kts | 102° |
| 2026-05-05 11:31 | 13.36162 | 77.62884 | 12682 ft | 353 kts | 104° |
| 2026-05-05 11:31 | 13.35508 | 77.65329 | 13319 ft | 356 kts | 104° |
| 2026-05-05 11:31 | 13.34832 | 77.67789 | 13923 ft | 360 kts | 105° |
| 2026-05-05 11:31 | 13.34148 | 77.70269 | 14440 ft | 363 kts | 105° |
| 2026-05-05 11:32 | 13.33464 | 77.72781 | 14955 ft | 367 kts | 105° |
| 2026-05-05 11:32 | 13.32779 | 77.75325 | 15495 ft | 371 kts | 105° |
| 2026-05-05 11:32 | 13.32092 | 77.77894 | 16041 ft | 375 kts | 105° |
| 2026-05-05 11:32 | 13.31401 | 77.80490 | 16556 ft | 379 kts | 105° |
| 2026-05-05 11:33 | 13.30704 | 77.83120 | 17063 ft | 383 kts | 105° |
| 2026-05-05 11:33 | 13.29995 | 77.85806 | 17578 ft | 387 kts | 105° |
| 2026-05-05 11:33 | 13.29285 | 77.88492 | 18094 ft | 391 kts | 105° |
| 2026-05-05 11:33 | 13.28570 | 77.91192 | 18554 ft | 394 kts | 105° |
| 2026-05-05 11:34 | 13.27847 | 77.93914 | 18844 ft | 398 kts | 105° |
| 2026-05-05 11:34 | 13.27106 | 77.96709 | 18924 ft | 413 kts | 105° |
| 2026-05-05 11:34 | 13.26336 | 77.99611 | 18941 ft | 429 kts | 105° |
| 2026-05-05 11:34 | 13.25535 | 78.02615 | 18938 ft | 444 kts | 105° |
| 2026-05-05 11:35 | 13.24756 | 78.05536 | 18937 ft | 457 kts | 105° |
| 2026-05-05 11:35 | 13.23881 | 78.08814 | 18936 ft | 464 kts | 105° |
| 2026-05-05 11:35 | 13.23037 | 78.11984 | 18936 ft | 466 kts | 105° |
| 2026-05-05 11:35 | 13.22183 | 78.15193 | 18933 ft | 466 kts | 105° |
| 2026-05-05 11:36 | 13.21329 | 78.18395 | 18925 ft | 466 kts | 105° |
| 2026-05-05 11:36 | 13.20473 | 78.21608 | 18927 ft | 466 kts | 105° |
| 2026-05-05 11:36 | 13.19617 | 78.24814 | 18927 ft | 466 kts | 105° |
| 2026-05-05 11:36 | 13.18774 | 78.27974 | 18925 ft | 466 kts | 105° |
| 2026-05-05 11:37 | 13.17904 | 78.31225 | 18921 ft | 466 kts | 105° |
| 2026-05-05 11:37 | 13.17046 | 78.34429 | 18920 ft | 466 kts | 106° |
| 2026-05-05 11:37 | 13.16187 | 78.37630 | 18916 ft | 466 kts | 106° |
| 2026-05-05 11:37 | 13.15327 | 78.40832 | 18909 ft | 466 kts | 106° |
| 2026-05-05 11:38 | 13.14467 | 78.44030 | 18906 ft | 466 kts | 106° |
| 2026-05-05 11:38 | 13.13606 | 78.47233 | 18898 ft | 465 kts | 106° |
| 2026-05-05 11:38 | 13.12751 | 78.50413 | 18893 ft | 466 kts | 106° |
| 2026-05-05 11:38 | 13.11888 | 78.53618 | 18889 ft | 466 kts | 106° |
| 2026-05-05 11:39 | 13.11028 | 78.56810 | 18887 ft | 466 kts | 105° |
| 2026-05-05 11:39 | 13.10195 | 78.59906 | 18880 ft | 466 kts | 106° |
| 2026-05-05 11:39 | 13.09332 | 78.63114 | 18876 ft | 466 kts | 106° |
| 2026-05-05 11:39 | 13.08470 | 78.66318 | 18867 ft | 466 kts | 106° |
| 2026-05-05 11:40 | 13.07610 | 78.69518 | 18863 ft | 466 kts | 105° |
| 2026-05-05 11:40 | 13.06747 | 78.72730 | 18857 ft | 466 kts | 106° |
| 2026-05-05 11:40 | 13.05886 | 78.75934 | 18857 ft | 466 kts | 106° |
| 2026-05-05 11:40 | 13.05024 | 78.79140 | 18856 ft | 467 kts | 105° |
| 2026-05-05 11:41 | 13.04161 | 78.82344 | 18850 ft | 467 kts | 106° |
| 2026-05-05 11:41 | 13.03297 | 78.85549 | 18846 ft | 467 kts | 106° |
| 2026-05-05 11:41 | 13.02428 | 78.88773 | 18855 ft | 471 kts | 106° |
| 2026-05-05 11:41 | 13.01556 | 78.92015 | 18857 ft | 473 kts | 106° |
| 2026-05-05 11:42 | 13.00679 | 78.95270 | 18849 ft | 474 kts | 106° |
| 2026-05-05 11:42 | 12.99819 | 78.98463 | 18844 ft | 474 kts | 106° |
| 2026-05-05 11:42 | 12.98941 | 79.01725 | 18839 ft | 474 kts | 105° |
| 2026-05-05 11:42 | 12.98062 | 79.04990 | 18838 ft | 474 kts | 105° |
| 2026-05-05 11:43 | 12.97193 | 79.08238 | 18830 ft | 474 kts | 105° |
| 2026-05-05 11:43 | 12.96309 | 79.11542 | 18832 ft | 475 kts | 106° |
| 2026-05-05 11:43 | 12.95393 | 79.14750 | 18824 ft | 474 kts | 107° |
| 2026-05-05 11:43 | 12.94414 | 79.18020 | 18820 ft | 474 kts | 108° |
| 2026-05-05 11:44 | 12.93427 | 79.21251 | 18812 ft | 474 kts | 108° |
| 2026-05-05 11:44 | 12.92445 | 79.24468 | 18547 ft | 473 kts | 108° |
| 2026-05-05 11:44 | 12.91472 | 79.27686 | 18171 ft | 471 kts | 107° |
| 2026-05-05 11:44 | 12.90521 | 79.30883 | 17714 ft | 468 kts | 107° |
| 2026-05-05 11:45 | 12.89585 | 79.34064 | 17202 ft | 464 kts | 107° |
| 2026-05-05 11:45 | 12.88660 | 79.37220 | 16709 ft | 460 kts | 107° |
| 2026-05-05 11:45 | 12.87742 | 79.40342 | 16205 ft | 456 kts | 107° |
| 2026-05-05 11:45 | 12.86828 | 79.43432 | 15735 ft | 451 kts | 107° |
| 2026-05-05 11:46 | 12.86227 | 79.45465 | 15417 ft | 448 kts | 106° |
| 2026-05-05 11:46 | 12.85653 | 79.48575 | 14948 ft | 443 kts | 94° |
| 2026-05-05 11:46 | 12.85775 | 79.51675 | 14488 ft | 438 kts | 81° |
| 2026-05-05 11:46 | 12.86589 | 79.54727 | 14026 ft | 430 kts | 69° |
| 2026-05-05 11:47 | 12.87650 | 79.57541 | 13566 ft | 415 kts | 69° |
| 2026-05-05 11:47 | 12.88662 | 79.60241 | 13062 ft | 396 kts | 69° |
| 2026-05-05 11:47 | 12.89502 | 79.62496 | 12626 ft | 376 kts | 69° |
| 2026-05-05 11:47 | 12.90408 | 79.64935 | 12214 ft | 355 kts | 69° |
| 2026-05-05 11:48 | 12.92111 | 79.69527 | 11479 ft | 332 kts | 69° |
| 2026-05-05 11:48 | 12.92908 | 79.71675 | 11133 ft | 323 kts | 69° |
| 2026-05-05 11:48 | 12.93710 | 79.73827 | 10771 ft | 312 kts | 68° |
| 2026-05-05 11:49 | 12.94458 | 79.75832 | 10425 ft | 299 kts | 68° |
| 2026-05-05 11:49 | 12.95196 | 79.77813 | 10161 ft | 291 kts | 68° |
| 2026-05-05 11:49 | 12.95912 | 79.79735 | 9921 ft | 287 kts | 68° |
| 2026-05-05 11:49 | 12.96619 | 79.81634 | 9575 ft | 283 kts | 68° |
| 2026-05-05 11:50 | 12.97319 | 79.83513 | 9080 ft | 281 kts | 68° |
| 2026-05-05 11:50 | 12.98014 | 79.85379 | 8606 ft | 280 kts | 69° |
| 2026-05-05 11:50 | 12.98708 | 79.87240 | 8112 ft | 279 kts | 68° |
| 2026-05-05 11:50 | 12.99397 | 79.89091 | 7675 ft | 278 kts | 69° |
| 2026-05-05 11:51 | 12.99957 | 79.90600 | 7348 ft | 277 kts | 69° |
| 2026-05-05 11:51 | 13.00639 | 79.92440 | 6916 ft | 275 kts | 69° |
| 2026-05-05 11:51 | 13.01317 | 79.94273 | 6493 ft | 275 kts | 69° |
| 2026-05-05 11:51 | 13.01993 | 79.96100 | 6053 ft | 274 kts | 69° |
| 2026-05-05 11:52 | 13.02672 | 79.97933 | 5626 ft | 275 kts | 69° |
| 2026-05-05 11:52 | 13.03350 | 79.99768 | 5332 ft | 274 kts | 69° |
| 2026-05-05 11:52 | 13.04013 | 80.01555 | 5274 ft | 262 kts | 69° |
| 2026-05-05 11:52 | 13.04647 | 80.03258 | 5282 ft | 249 kts | 69° |
| 2026-05-05 11:53 | 13.05258 | 80.04896 | 5284 ft | 244 kts | 69° |
| 2026-05-05 11:53 | 13.05862 | 80.06518 | 5286 ft | 244 kts | 69° |
| 2026-05-05 11:53 | 13.06463 | 80.08142 | 5283 ft | 243 kts | 69° |
| 2026-05-05 11:53 | 13.07060 | 80.09764 | 5287 ft | 243 kts | 69° |
| 2026-05-05 11:54 | 13.07659 | 80.11389 | 5282 ft | 243 kts | 69° |
| 2026-05-05 11:54 | 13.08260 | 80.13010 | 5284 ft | 244 kts | 69° |
| 2026-05-05 11:54 | 13.08859 | 80.14630 | 5283 ft | 244 kts | 69° |
| 2026-05-05 11:54 | 13.09463 | 80.16263 | 5286 ft | 244 kts | 69° |
| 2026-05-05 11:55 | 13.10065 | 80.17886 | 5287 ft | 243 kts | 69° |
| 2026-05-05 11:55 | 13.10662 | 80.19510 | 5288 ft | 243 kts | 70° |
| 2026-05-05 11:55 | 13.11253 | 80.21136 | 5286 ft | 244 kts | 69° |
| 2026-05-05 11:55 | 13.11851 | 80.22761 | 5285 ft | 243 kts | 69° |
| 2026-05-05 11:56 | 13.12460 | 80.24379 | 5288 ft | 243 kts | 69° |
| 2026-05-05 11:56 | 13.13058 | 80.25952 | 5268 ft | 230 kts | 69° |
| 2026-05-05 11:56 | 13.13644 | 80.27479 | 5050 ft | 226 kts | 68° |
| 2026-05-05 11:56 | 13.14090 | 80.28992 | 4763 ft | 225 kts | 87° |
| 2026-05-05 11:57 | 13.13758 | 80.30531 | 4480 ft | 223 kts | 121° |
| 2026-05-05 11:57 | 13.12632 | 80.31617 | 4174 ft | 222 kts | 156° |
| 2026-05-05 11:57 | 13.11137 | 80.31851 | 3897 ft | 220 kts | 190° |
| 2026-05-05 11:57 | 13.09713 | 80.31350 | 3607 ft | 212 kts | 206° |
| 2026-05-05 11:58 | 13.08455 | 80.30670 | 3320 ft | 198 kts | 208° |
| 2026-05-05 11:58 | 13.07272 | 80.29991 | 3046 ft | 193 kts | 208° |
| 2026-05-05 11:58 | 13.06116 | 80.29318 | 2781 ft | 190 kts | 208° |
| 2026-05-05 11:58 | 13.04970 | 80.28643 | 2488 ft | 190 kts | 208° |
| 2026-05-05 11:59 | 13.03838 | 80.27962 | 2166 ft | 188 kts | 210° |
| 2026-05-05 11:59 | 13.02898 | 80.27032 | 1784 ft | 191 kts | 234° |
| 2026-05-05 11:59 | 13.02365 | 80.25819 | 1532 ft | 181 kts | 246° |
| 2026-05-05 11:59 | 13.01926 | 80.24647 | 1286 ft | 169 kts | 245° |
| 2026-05-05 12:00 | 13.01520 | 80.23566 | 1076 ft | 158 kts | 245° |
| 2026-05-05 12:00 | 13.01138 | 80.22549 | 892 ft | 154 kts | 245° |
| 2026-05-05 12:00 | 13.00762 | 80.21546 | 715 ft | 147 kts | 245° |
| 2026-05-05 12:00 | 13.00397 | 80.20577 | 547 ft | 147 kts | 242° |
| 2026-05-05 12:01 | 13.00031 | 80.19604 | 346 ft | 146 kts | 243° |
| 2026-05-05 12:01 | 12.99668 | 80.18629 | 152 ft | 146 kts | 243° |
| 2026-05-05 12:01 | 12.99311 | 80.17682 | 58 ft | 131 kts | 248° |
| 2026-05-05 12:01 | 12.99039 | 80.16963 | 53 ft | 84 kts | 250° |
| 2026-05-05 12:02 | 12.98900 | 80.16589 | 51 ft | 40 kts | 247° |
| 2026-05-05 12:02 | 12.98754 | 80.16368 | 55 ft | 17 kts | 216° |
| 2026-05-05 12:02 | 12.98656 | 80.16308 | 51 ft | 15 kts | 196° |
| 2026-05-05 12:02 | 12.98574 | 80.16230 | 52 ft | 17 kts | 237° |
| 2026-05-05 12:03 | 12.98523 | 80.16138 | 53 ft | 12 kts | 214° |
| 2026-05-05 12:03 | 12.98449 | 80.16150 | 52 ft | 2 kts | 157° |
| 2026-05-05 12:03 | 12.98428 | 80.16159 | 52 ft | 5 kts | 157° |
| 2026-05-05 12:03 | 12.98416 | 80.16164 | 51 ft | 2 kts | 156° |
| 2026-05-05 12:04 | 12.98392 | 80.16181 | 53 ft | 6 kts | 135° |
| 2026-05-05 12:04 | 12.98396 | 80.16227 | 55 ft | 8 kts | 65° |
| 2026-05-05 12:04 | 12.98417 | 80.16289 | 50 ft | 11 kts | 70° |
| 2026-05-05 12:04 | 12.98444 | 80.16369 | 51 ft | 13 kts | 71° |
| 2026-05-05 12:05 | 12.98472 | 80.16444 | 55 ft | 8 kts | 69° |
| 2026-05-05 12:05 | 12.98444 | 80.16484 | 52 ft | 9 kts | 156° |
| 2026-05-05 12:05 | 12.98418 | 80.16493 | 53 ft | 2 kts | 161° |